Terminal Aerodrome Forecast
Issued by NWS

Home | Current Version | Previous Version | Text Only | Print | Product List | Glossary On
Versions: 1 2 3 4 5 6 7 8 9 10 11 12 13 14
397
FTUS46 KSTO 222345
TAFMHR
TAF
KMHR 222345Z 2300/2324 18010KT P6SM -SHRA BKN020
      TEMPO 2300/2304 6SM -SHRA OVC025
     FM230600 18010KT P6SM OVC050
     FM231200 16008KT P6SM -SHRA OVC040=

USA.gov is the U.S. government's official web portal to all federal, state and local government web resources and services.